Airfield :
LOGIN :

Register | Disclaimer

   EN    FR    IT 

 










Legend :    VFR   Marginal VFR   IFR   Intensive IFR   Very Intensive IFR
Visi :
Ceiling :
>= 8 km
>= 3000ft
5 to 8 km
1000 to 3000 ft
1500m to 5 km
500 to 1000 ft
800 to 1500m
200 to 500 ft
< 800m
< 200 ft
Symbols :   Thunderstorms  Fog  Heavy snow  Heavy precipitations  Wind > 20 kt
SIGMETs :     Misc.  Thunderstorms  Icing  Turbulence  Mountain Waves  Volcanic Ashes






- Airport Elevation : 245 ft


ETHS - Fassberg

CURRENT METAR :
  • 220720Z VRB02KT 3700 R27/0700N MIFG BR SCT090 BKN200 01/00 Q1009 GRN BLU TEMPO GRN

EXPIRED METARs :
  • 220620Z 18002KT 4000 MIFG BR SCT120 BKN200 02/01 Q1008 GRN BLU TEMPO GRN
  • 220520Z VRB02KT 5000 MIFG BR SCT120 BKN190 04/03 Q1008 WHT BLU TEMPO GRN

TAF TAF ETHS
Valid from the 22 at 06:00 until the 22 at 15:00 UTC


220519Z 2206/2215 16005KT 8000 NSW BKN100
TEMPO 2206/2209 18003KT 4000 BR BKN070



MET'MAP, your aeronautical weather chart ! - Copyright ORBIFLY December 2007 - Disclaimer

ORBIFLY MET'MAP TEAM :

Programming & Development : Alexandra Zaïnal
Concept & Development : Baudouin d'Aumeries
Co-Development & Prog : Marc-Olivier Méhu
Technical & hardware support : Manuel Goepfert

Contact : metmap@orbifly.com




SOURCES & CREDITS :

   NOAA